Terminal Aerodrome Forecast
Issued by NWS

Home | Current Version | Previous Version | Text Only | Print | Product List | Glossary On
Versions: 1 2 3 4 5 6 7 8 9 10 11 12 13 14 15 16 17 18
000
FTUS46 KMTR 201700
TAFOAK
TAF
KOAK 201740Z 2018/2124 17003KT 5SM BR VCSH SCT009 BKN030 OVC090
     FM201900 19004KT 5SM BR VCSH BKN012 BKN020 OVC080
     FM202100 21004KT 5SM -SHRA BR BKN007 BKN015 OVC020
     FM210300 20005KT 5SM BR VCSH SCT010 BKN020 OVC035
     FM210600 20004KT P6SM BKN015 OVC020
     FM211800 23006KT P6SM BKN020=

USA.gov is the U.S. government's official web portal to all federal, state and local government web resources and services.